sensor_id;sensor_type;location;lat;lon;timestamp;temperature;humidity
59505;DHT22;45321;53.200;5.814;2022-08-21T00:01:58;19.20;71.20
59505;DHT22;45321;53.200;5.814;2022-08-21T00:04:24;19.10;71.30
59505;DHT22;45321;53.200;5.814;2022-08-21T00:06:51;19.10;71.20
59505;DHT22;45321;53.200;5.814;2022-08-21T00:09:18;19.10;71.50
59505;DHT22;45321;53.200;5.814;2022-08-21T00:11:45;19.10;71.60
59505;DHT22;45321;53.200;5.814;2022-08-21T00:14:12;19.10;71.30
59505;DHT22;45321;53.200;5.814;2022-08-21T00:16:38;19.10;71.30
59505;DHT22;45321;53.200;5.814;2022-08-21T00:19:04;19.10;71.30
59505;DHT22;45321;53.200;5.814;2022-08-21T00:21:32;19.00;71.50
59505;DHT22;45321;53.200;5.814;2022-08-21T00:23:58;19.00;71.40
59505;DHT22;45321;53.200;5.814;2022-08-21T00:26:23;19.00;71.50
59505;DHT22;45321;53.200;5.814;2022-08-21T00:28:49;19.00;71.60
59505;DHT22;45321;53.200;5.814;2022-08-21T00:31:16;18.90;71.60
59505;DHT22;45321;53.200;5.814;2022-08-21T00:33:44;18.90;71.60
59505;DHT22;45321;53.200;5.814;2022-08-21T00:36:11;18.90;71.70
59505;DHT22;45321;53.200;5.814;2022-08-21T00:38:37;18.80;71.60
59505;DHT22;45321;53.200;5.814;2022-08-21T00:41:07;18.80;71.50
59505;DHT22;45321;53.200;5.814;2022-08-21T00:43:35;18.70;72.00
59505;DHT22;45321;53.200;5.814;2022-08-21T00:46:03;18.70;72.00
59505;DHT22;45321;53.200;5.814;2022-08-21T00:48:30;18.70;72.20
59505;DHT22;45321;53.200;5.814;2022-08-21T00:51:13;18.70;72.20
59505;DHT22;45321;53.200;5.814;2022-08-21T00:53:42;18.60;72.30
59505;DHT22;45321;53.200;5.814;2022-08-21T00:56:10;18.60;72.40
59505;DHT22;45321;53.200;5.814;2022-08-21T00:58:38;18.60;72.40
59505;DHT22;45321;53.200;5.814;2022-08-21T01:01:06;18.50;72.60
59505;DHT22;45321;53.200;5.814;2022-08-21T01:03:32;18.50;72.90
59505;DHT22;45321;53.200;5.814;2022-08-21T01:05:58;18.50;73.10
59505;DHT22;45321;53.200;5.814;2022-08-21T01:08:25;18.50;73.20
59505;DHT22;45321;53.200;5.814;2022-08-21T01:10:53;18.40;73.20
59505;DHT22;45321;53.200;5.814;2022-08-21T01:13:19;18.50;73.30
59505;DHT22;45321;53.200;5.814;2022-08-21T01:15:48;18.40;73.50
59505;DHT22;45321;53.200;5.814;2022-08-21T01:18:16;18.40;73.60
59505;DHT22;45321;53.200;5.814;2022-08-21T01:23:11;18.30;73.60
59505;DHT22;45321;53.200;5.814;2022-08-21T01:25:37;18.30;74.00
59505;DHT22;45321;53.200;5.814;2022-08-21T01:28:09;18.30;74.00
59505;DHT22;45321;53.200;5.814;2022-08-21T01:30:36;18.30;74.20
59505;DHT22;45321;53.200;5.814;2022-08-21T01:33:03;18.20;74.10
59505;DHT22;45321;53.200;5.814;2022-08-21T01:35:29;18.20;74.20
59505;DHT22;45321;53.200;5.814;2022-08-21T01:37:55;18.20;74.20
59505;DHT22;45321;53.200;5.814;2022-08-21T01:40:20;18.20;74.10
59505;DHT22;45321;53.200;5.814;2022-08-21T01:42:47;18.20;74.60
59505;DHT22;45321;53.200;5.814;2022-08-21T01:45:14;18.10;74.40
59505;DHT22;45321;53.200;5.814;2022-08-21T01:47:41;18.10;74.70
59505;DHT22;45321;53.200;5.814;2022-08-21T01:50:09;18.10;74.30
59505;DHT22;45321;53.200;5.814;2022-08-21T01:52:36;18.10;74.60
59505;DHT22;45321;53.200;5.814;2022-08-21T01:55:02;18.10;74.70
59505;DHT22;45321;53.200;5.814;2022-08-21T01:57:28;18.10;74.70
59505;DHT22;45321;53.200;5.814;2022-08-21T01:59:54;18.00;74.70
59505;DHT22;45321;53.200;5.814;2022-08-21T02:02:20;18.10;74.70
59505;DHT22;45321;53.200;5.814;2022-08-21T02:04:45;18.00;74.90
59505;DHT22;45321;53.200;5.814;2022-08-21T02:07:11;18.00;74.90
59505;DHT22;45321;53.200;5.814;2022-08-21T02:09:37;18.00;75.00
59505;DHT22;45321;53.200;5.814;2022-08-21T02:12:03;17.90;74.70
59505;DHT22;45321;53.200;5.814;2022-08-21T02:14:28;17.90;75.10
59505;DHT22;45321;53.200;5.814;2022-08-21T02:16:54;17.90;75.20
59505;DHT22;45321;53.200;5.814;2022-08-21T02:19:20;17.90;75.20
59505;DHT22;45321;53.200;5.814;2022-08-21T02:21:46;17.80;75.50
59505;DHT22;45321;53.200;5.814;2022-08-21T02:24:11;17.80;74.90
59505;DHT22;45321;53.200;5.814;2022-08-21T02:26:37;17.80;75.10
59505;DHT22;45321;53.200;5.814;2022-08-21T02:29:04;17.80;75.50
59505;DHT22;45321;53.200;5.814;2022-08-21T02:31:30;17.80;75.40
59505;DHT22;45321;53.200;5.814;2022-08-21T02:33:57;17.80;75.40
59505;DHT22;45321;53.200;5.814;2022-08-21T02:36:22;17.80;75.00
59505;DHT22;45321;53.200;5.814;2022-08-21T02:38:48;17.80;75.50
59505;DHT22;45321;53.200;5.814;2022-08-21T02:41:18;17.80;75.70
59505;DHT22;45321;53.200;5.814;2022-08-21T02:43:45;17.80;75.50
59505;DHT22;45321;53.200;5.814;2022-08-21T02:46:13;17.70;75.60
59505;DHT22;45321;53.200;5.814;2022-08-21T02:48:39;17.70;75.80
59505;DHT22;45321;53.200;5.814;2022-08-21T02:51:17;17.70;75.80
59505;DHT22;45321;53.200;5.814;2022-08-21T02:53:44;17.70;75.80
59505;DHT22;45321;53.200;5.814;2022-08-21T02:56:12;17.70;75.70
59505;DHT22;45321;53.200;5.814;2022-08-21T02:58:41;17.70;75.90
59505;DHT22;45321;53.200;5.814;2022-08-21T03:01:08;17.70;76.00
59505;DHT22;45321;53.200;5.814;2022-08-21T03:03:39;17.60;76.30
59505;DHT22;45321;53.200;5.814;2022-08-21T03:06:07;17.70;76.20
59505;DHT22;45321;53.200;5.814;2022-08-21T03:08:34;17.70;75.70
59505;DHT22;45321;53.200;5.814;2022-08-21T03:11:00;17.70;76.40
59505;DHT22;45321;53.200;5.814;2022-08-21T03:13:27;17.70;76.10
59505;DHT22;45321;53.200;5.814;2022-08-21T03:15:53;17.70;76.20
59505;DHT22;45321;53.200;5.814;2022-08-21T03:18:19;17.70;76.10
59505;DHT22;45321;53.200;5.814;2022-08-21T03:20:45;17.70;76.20
59505;DHT22;45321;53.200;5.814;2022-08-21T03:23:12;17.60;76.10
59505;DHT22;45321;53.200;5.814;2022-08-21T03:25:38;17.70;76.10
59505;DHT22;45321;53.200;5.814;2022-08-21T03:28:08;17.70;76.40
59505;DHT22;45321;53.200;5.814;2022-08-21T03:30:35;17.60;76.30
59505;DHT22;45321;53.200;5.814;2022-08-21T03:33:02;17.60;76.40
59505;DHT22;45321;53.200;5.814;2022-08-21T03:35:28;17.60;76.30
59505;DHT22;45321;53.200;5.814;2022-08-21T03:37:54;17.60;76.70
59505;DHT22;45321;53.200;5.814;2022-08-21T03:40:21;17.60;76.70
59505;DHT22;45321;53.200;5.814;2022-08-21T03:42:47;17.60;76.40
59505;DHT22;45321;53.200;5.814;2022-08-21T03:45:15;17.60;76.80
59505;DHT22;45321;53.200;5.814;2022-08-21T03:47:59;17.60;76.60
59505;DHT22;45321;53.200;5.814;2022-08-21T03:50:28;17.60;76.60
59505;DHT22;45321;53.200;5.814;2022-08-21T03:52:55;17.60;76.40
59505;DHT22;45321;53.200;5.814;2022-08-21T03:55:21;17.60;76.60
59505;DHT22;45321;53.200;5.814;2022-08-21T03:57:47;17.60;76.60
59505;DHT22;45321;53.200;5.814;2022-08-21T04:00:13;17.50;76.80
59505;DHT22;45321;53.200;5.814;2022-08-21T04:02:40;17.50;77.20
59505;DHT22;45321;53.200;5.814;2022-08-21T04:05:07;17.50;77.10
59505;DHT22;45321;53.200;5.814;2022-08-21T04:07:33;17.50;76.80
59505;DHT22;45321;53.200;5.814;2022-08-21T04:09:59;17.50;77.10
59505;DHT22;45321;53.200;5.814;2022-08-21T04:12:24;17.50;77.10
59505;DHT22;45321;53.200;5.814;2022-08-21T04:14:50;17.50;77.30
59505;DHT22;45321;53.200;5.814;2022-08-21T04:17:17;17.50;77.20
59505;DHT22;45321;53.200;5.814;2022-08-21T04:19:44;17.50;76.90
59505;DHT22;45321;53.200;5.814;2022-08-21T04:22:10;17.50;77.30
59505;DHT22;45321;53.200;5.814;2022-08-21T04:24:36;17.40;77.20
59505;DHT22;45321;53.200;5.814;2022-08-21T04:27:01;17.50;76.90
59505;DHT22;45321;53.200;5.814;2022-08-21T04:29:27;17.40;77.30
59505;DHT22;45321;53.200;5.814;2022-08-21T04:31:53;17.40;77.40
59505;DHT22;45321;53.200;5.814;2022-08-21T04:34:18;17.40;77.60
59505;DHT22;45321;53.200;5.814;2022-08-21T04:36:44;17.30;77.50
59505;DHT22;45321;53.200;5.814;2022-08-21T04:39:10;17.30;77.40
59505;DHT22;45321;53.200;5.814;2022-08-21T04:41:36;17.30;77.70
59505;DHT22;45321;53.200;5.814;2022-08-21T04:44:02;17.30;77.60
59505;DHT22;45321;53.200;5.814;2022-08-21T04:46:28;17.30;77.40
59505;DHT22;45321;53.200;5.814;2022-08-21T04:48:54;17.30;77.90
59505;DHT22;45321;53.200;5.814;2022-08-21T04:51:32;17.30;77.80
59505;DHT22;45321;53.200;5.814;2022-08-21T04:54:02;17.30;77.70
59505;DHT22;45321;53.200;5.814;2022-08-21T04:56:37;17.30;78.00
59505;DHT22;45321;53.200;5.814;2022-08-21T04:59:07;17.30;78.20
59505;DHT22;45321;53.200;5.814;2022-08-21T05:01:37;17.30;78.00
59505;DHT22;45321;53.200;5.814;2022-08-21T05:04:06;17.30;78.20
59505;DHT22;45321;53.200;5.814;2022-08-21T05:06:35;17.30;78.10
59505;DHT22;45321;53.200;5.814;2022-08-21T05:09:03;17.30;78.40
59505;DHT22;45321;53.200;5.814;2022-08-21T05:11:30;17.30;78.40
59505;DHT22;45321;53.200;5.814;2022-08-21T05:13:56;17.30;78.30
59505;DHT22;45321;53.200;5.814;2022-08-21T05:16:22;17.30;78.40
59505;DHT22;45321;53.200;5.814;2022-08-21T05:18:48;17.30;78.40
59505;DHT22;45321;53.200;5.814;2022-08-21T05:21:13;17.30;78.50
59505;DHT22;45321;53.200;5.814;2022-08-21T05:23:39;17.30;78.70
59505;DHT22;45321;53.200;5.814;2022-08-21T05:26:05;17.30;78.70
59505;DHT22;45321;53.200;5.814;2022-08-21T05:28:31;17.40;79.00
59505;DHT22;45321;53.200;5.814;2022-08-21T05:30:57;17.40;78.80
59505;DHT22;45321;53.200;5.814;2022-08-21T05:33:24;17.40;79.00
59505;DHT22;45321;53.200;5.814;2022-08-21T05:35:52;17.40;78.70
59505;DHT22;45321;53.200;5.814;2022-08-21T05:38:18;17.40;78.90
59505;DHT22;45321;53.200;5.814;2022-08-21T05:40:45;17.40;78.90
59505;DHT22;45321;53.200;5.814;2022-08-21T05:43:11;17.50;79.30
59505;DHT22;45321;53.200;5.814;2022-08-21T05:45:37;17.50;79.30
59505;DHT22;45321;53.200;5.814;2022-08-21T05:48:07;17.70;79.30
59505;DHT22;45321;53.200;5.814;2022-08-21T05:50:33;17.70;79.10
59505;DHT22;45321;53.200;5.814;2022-08-21T05:53:00;17.80;79.40
59505;DHT22;45321;53.200;5.814;2022-08-21T05:55:26;17.80;79.30
59505;DHT22;45321;53.200;5.814;2022-08-21T05:57:51;17.90;79.40
59505;DHT22;45321;53.200;5.814;2022-08-21T06:00:18;17.90;79.30
59505;DHT22;45321;53.200;5.814;2022-08-21T06:02:44;18.10;79.60
59505;DHT22;45321;53.200;5.814;2022-08-21T06:05:09;18.00;79.20
59505;DHT22;45321;53.200;5.814;2022-08-21T06:07:35;18.00;79.60
59505;DHT22;45321;53.200;5.814;2022-08-21T06:10:02;18.10;79.60
59505;DHT22;45321;53.200;5.814;2022-08-21T06:12:28;18.10;79.90
59505;DHT22;45321;53.200;5.814;2022-08-21T06:14:54;18.10;80.40
59505;DHT22;45321;53.200;5.814;2022-08-21T06:17:20;18.10;80.20
59505;DHT22;45321;53.200;5.814;2022-08-21T06:19:49;18.20;80.50
59505;DHT22;45321;53.200;5.814;2022-08-21T06:22:15;18.20;80.30
59505;DHT22;45321;53.200;5.814;2022-08-21T06:24:41;18.20;80.40
59505;DHT22;45321;53.200;5.814;2022-08-21T06:27:06;18.20;80.60
59505;DHT22;45321;53.200;5.814;2022-08-21T06:29:33;18.30;81.00
59505;DHT22;45321;53.200;5.814;2022-08-21T06:32:00;18.30;81.20
59505;DHT22;45321;53.200;5.814;2022-08-21T06:34:26;18.40;80.80
59505;DHT22;45321;53.200;5.814;2022-08-21T06:36:51;18.50;80.90
59505;DHT22;45321;53.200;5.814;2022-08-21T06:39:17;18.50;81.30
59505;DHT22;45321;53.200;5.814;2022-08-21T06:41:43;18.50;81.50
59505;DHT22;45321;53.200;5.814;2022-08-21T06:44:09;18.60;81.30
59505;DHT22;45321;53.200;5.814;2022-08-21T06:46:35;18.70;81.50
59505;DHT22;45321;53.200;5.814;2022-08-21T06:49:01;18.70;81.30
59505;DHT22;45321;53.200;5.814;2022-08-21T06:51:27;18.80;81.80
59505;DHT22;45321;53.200;5.814;2022-08-21T06:53:53;18.80;81.20
59505;DHT22;45321;53.200;5.814;2022-08-21T06:56:19;18.90;81.70
59505;DHT22;45321;53.200;5.814;2022-08-21T06:58:45;18.90;81.20
59505;DHT22;45321;53.200;5.814;2022-08-21T07:01:11;19.00;80.90
59505;DHT22;45321;53.200;5.814;2022-08-21T07:03:39;19.00;80.90
59505;DHT22;45321;53.200;5.814;2022-08-21T07:06:07;19.10;81.10
59505;DHT22;45321;53.200;5.814;2022-08-21T07:08:33;19.20;81.20
59505;DHT22;45321;53.200;5.814;2022-08-21T07:11:00;19.30;81.30
59505;DHT22;45321;53.200;5.814;2022-08-21T07:13:27;19.40;81.20
59505;DHT22;45321;53.200;5.814;2022-08-21T07:15:53;19.50;81.20
59505;DHT22;45321;53.200;5.814;2022-08-21T07:18:19;19.70;80.80
59505;DHT22;45321;53.200;5.814;2022-08-21T07:20:45;19.70;80.70
59505;DHT22;45321;53.200;5.814;2022-08-21T07:23:30;19.80;79.90
59505;DHT22;45321;53.200;5.814;2022-08-21T07:25:56;19.80;79.70
59505;DHT22;45321;53.200;5.814;2022-08-21T07:28:22;19.80;79.30
59505;DHT22;45321;53.200;5.814;2022-08-21T07:30:53;19.80;79.30
59505;DHT22;45321;53.200;5.814;2022-08-21T07:33:20;19.80;79.20
59505;DHT22;45321;53.200;5.814;2022-08-21T07:35:45;19.80;79.50
59505;DHT22;45321;53.200;5.814;2022-08-21T07:38:11;19.90;79.50
59505;DHT22;45321;53.200;5.814;2022-08-21T07:40:37;20.00;79.60
59505;DHT22;45321;53.200;5.814;2022-08-21T07:43:03;20.10;80.00
59505;DHT22;45321;53.200;5.814;2022-08-21T07:45:29;20.20;79.30
59505;DHT22;45321;53.200;5.814;2022-08-21T07:47:55;20.30;78.90
59505;DHT22;45321;53.200;5.814;2022-08-21T07:50:20;20.30;78.70
59505;DHT22;45321;53.200;5.814;2022-08-21T07:52:46;20.30;78.50
59505;DHT22;45321;53.200;5.814;2022-08-21T07:55:15;20.40;78.50
59505;DHT22;45321;53.200;5.814;2022-08-21T07:57:42;20.40;78.50
59505;DHT22;45321;53.200;5.814;2022-08-21T08:00:10;20.40;78.30
59505;DHT22;45321;53.200;5.814;2022-08-21T08:02:37;20.50;78.30
59505;DHT22;45321;53.200;5.814;2022-08-21T08:05:04;20.50;78.50
59505;DHT22;45321;53.200;5.814;2022-08-21T08:07:30;20.60;78.20
59505;DHT22;45321;53.200;5.814;2022-08-21T08:09:57;20.70;78.20
59505;DHT22;45321;53.200;5.814;2022-08-21T08:12:32;20.70;77.90
59505;DHT22;45321;53.200;5.814;2022-08-21T08:14:59;20.70;78.00
59505;DHT22;45321;53.200;5.814;2022-08-21T08:17:25;20.80;77.70
59505;DHT22;45321;53.200;5.814;2022-08-21T08:19:52;20.90;77.70
59505;DHT22;45321;53.200;5.814;2022-08-21T08:22:20;21.00;77.50
59505;DHT22;45321;53.200;5.814;2022-08-21T08:24:47;21.20;77.70
59505;DHT22;45321;53.200;5.814;2022-08-21T08:27:14;21.20;77.40
59505;DHT22;45321;53.200;5.814;2022-08-21T08:29:42;21.30;77.00
59505;DHT22;45321;53.200;5.814;2022-08-21T08:32:07;21.30;76.70
59505;DHT22;45321;53.200;5.814;2022-08-21T08:34:35;21.40;77.00
59505;DHT22;45321;53.200;5.814;2022-08-21T08:37:01;21.60;76.40
59505;DHT22;45321;53.200;5.814;2022-08-21T08:39:27;21.70;76.50
59505;DHT22;45321;53.200;5.814;2022-08-21T08:42:06;21.70;75.80
59505;DHT22;45321;53.200;5.814;2022-08-21T08:44:33;21.80;75.00
59505;DHT22;45321;53.200;5.814;2022-08-21T08:46:59;21.90;73.70
59505;DHT22;45321;53.200;5.814;2022-08-21T08:50:05;21.90;74.20
59505;DHT22;45321;53.200;5.814;2022-08-21T08:52:35;21.90;73.70
59505;DHT22;45321;53.200;5.814;2022-08-21T08:55:08;21.90;72.50
59505;DHT22;45321;53.200;5.814;2022-08-21T08:57:36;21.90;73.20
59505;DHT22;45321;53.200;5.814;2022-08-21T09:00:09;21.90;72.10
59505;DHT22;45321;53.200;5.814;2022-08-21T09:02:40;21.90;72.30
59505;DHT22;45321;53.200;5.814;2022-08-21T09:05:07;22.00;72.80
59505;DHT22;45321;53.200;5.814;2022-08-21T09:12:45;22.20;70.70
59505;DHT22;45321;53.200;5.814;2022-08-21T09:15:32;22.20;70.00
59505;DHT22;45321;53.200;5.814;2022-08-21T09:21:23;22.20;70.10
59505;DHT22;45321;53.200;5.814;2022-08-21T09:26:23;22.60;68.50
59505;DHT22;45321;53.200;5.814;2022-08-21T09:28:55;22.60;68.30
59505;DHT22;45321;53.200;5.814;2022-08-21T09:31:27;22.70;68.40
59505;DHT22;45321;53.200;5.814;2022-08-21T09:33:59;22.70;66.40
59505;DHT22;45321;53.200;5.814;2022-08-21T09:36:37;22.60;67.00
59505;DHT22;45321;53.200;5.814;2022-08-21T09:39:05;22.50;66.00
59505;DHT22;45321;53.200;5.814;2022-08-21T09:41:33;22.50;66.20
59505;DHT22;45321;53.200;5.814;2022-08-21T09:44:01;22.50;65.90
59505;DHT22;45321;53.200;5.814;2022-08-21T09:46:27;22.60;66.70
59505;DHT22;45321;53.200;5.814;2022-08-21T09:49:02;22.70;66.30
59505;DHT22;45321;53.200;5.814;2022-08-21T09:51:34;22.80;66.20
59505;DHT22;45321;53.200;5.814;2022-08-21T09:56:50;23.20;65.30
59505;DHT22;45321;53.200;5.814;2022-08-21T09:59:36;23.30;65.20
59505;DHT22;45321;53.200;5.814;2022-08-21T10:04:55;23.60;63.50
59505;DHT22;45321;53.200;5.814;2022-08-21T10:07:24;23.50;62.60
59505;DHT22;45321;53.200;5.814;2022-08-21T10:12:45;23.20;62.90
59505;DHT22;45321;53.200;5.814;2022-08-21T10:15:22;23.20;63.30
59505;DHT22;45321;53.200;5.814;2022-08-21T10:20:22;22.90;62.20
59505;DHT22;45321;53.200;5.814;2022-08-21T10:23:04;22.90;62.30
59505;DHT22;45321;53.200;5.814;2022-08-21T10:25:43;22.90;62.60
59505;DHT22;45321;53.200;5.814;2022-08-21T10:28:39;22.90;63.70
59505;DHT22;45321;53.200;5.814;2022-08-21T10:31:22;23.10;64.10
59505;DHT22;45321;53.200;5.814;2022-08-21T10:36:20;23.40;62.50
59505;DHT22;45321;53.200;5.814;2022-08-21T10:39:35;23.50;62.40
59505;DHT22;45321;53.200;5.814;2022-08-21T10:42:09;23.70;60.90
59505;DHT22;45321;53.200;5.814;2022-08-21T10:48:20;24.20;59.40
59505;DHT22;45321;53.200;5.814;2022-08-21T10:50:52;24.30;59.00
59505;DHT22;45321;53.200;5.814;2022-08-21T10:59:07;24.40;58.20
59505;DHT22;45321;53.200;5.814;2022-08-21T11:04:20;24.60;58.70
59505;DHT22;45321;53.200;5.814;2022-08-21T11:06:48;24.70;57.30
59505;DHT22;45321;53.200;5.814;2022-08-21T11:09:19;25.00;58.30
59505;DHT22;45321;53.200;5.814;2022-08-21T11:12:12;25.20;56.90
59505;DHT22;45321;53.200;5.814;2022-08-21T11:14:59;25.60;56.20
59505;DHT22;45321;53.200;5.814;2022-08-21T11:17:49;25.80;55.40
59505;DHT22;45321;53.200;5.814;2022-08-21T11:20:59;26.10;55.10
59505;DHT22;45321;53.200;5.814;2022-08-21T11:23:26;26.30;55.00
59505;DHT22;45321;53.200;5.814;2022-08-21T11:25:58;26.60;53.80
59505;DHT22;45321;53.200;5.814;2022-08-21T11:28:35;26.80;52.30
59505;DHT22;45321;53.200;5.814;2022-08-21T11:31:22;27.10;52.10
59505;DHT22;45321;53.200;5.814;2022-08-21T11:37:40;27.30;51.00
59505;DHT22;45321;53.200;5.814;2022-08-21T11:39:51;27.40;51.90
59505;DHT22;45321;53.200;5.814;2022-08-21T11:42:35;27.50;51.60
59505;DHT22;45321;53.200;5.814;2022-08-21T11:45:26;27.60;51.20
59505;DHT22;45321;53.200;5.814;2022-08-21T11:48:25;27.70;50.20
59505;DHT22;45321;53.200;5.814;2022-08-21T11:50:53;27.90;49.50
59505;DHT22;45321;53.200;5.814;2022-08-21T11:53:24;28.10;49.50
59505;DHT22;45321;53.200;5.814;2022-08-21T11:56:19;28.20;48.60
59505;DHT22;45321;53.200;5.814;2022-08-21T11:58:51;28.10;48.70
59505;DHT22;45321;53.200;5.814;2022-08-21T12:01:25;28.10;49.30
59505;DHT22;45321;53.200;5.814;2022-08-21T12:04:04;28.30;49.60
59505;DHT22;45321;53.200;5.814;2022-08-21T12:06:32;28.20;48.20
59505;DHT22;45321;53.200;5.814;2022-08-21T12:09:01;28.10;48.30
59505;DHT22;45321;53.200;5.814;2022-08-21T12:11:28;27.90;46.60
59505;DHT22;45321;53.200;5.814;2022-08-21T12:13:59;28.00;46.80
59505;DHT22;45321;53.200;5.814;2022-08-21T12:16:34;28.10;47.00
59505;DHT22;45321;53.200;5.814;2022-08-21T12:24:32;28.70;46.50
59505;DHT22;45321;53.200;5.814;2022-08-21T12:27:13;28.80;47.40
59505;DHT22;45321;53.200;5.814;2022-08-21T12:29:52;28.90;45.40
59505;DHT22;45321;53.200;5.814;2022-08-21T12:35:14;29.20;44.90
59505;DHT22;45321;53.200;5.814;2022-08-21T12:38:07;29.30;44.70
59505;DHT22;45321;53.200;5.814;2022-08-21T12:40:41;29.10;43.70
59505;DHT22;45321;53.200;5.814;2022-08-21T12:43:14;28.70;44.50
59505;DHT22;45321;53.200;5.814;2022-08-21T12:45:44;28.40;45.80
59505;DHT22;45321;53.200;5.814;2022-08-21T12:48:39;28.20;45.70
59505;DHT22;45321;53.200;5.814;2022-08-21T12:51:13;28.00;46.40
59505;DHT22;45321;53.200;5.814;2022-08-21T12:53:51;28.10;47.10
59505;DHT22;45321;53.200;5.814;2022-08-21T12:56:22;28.20;45.90
59505;DHT22;45321;53.200;5.814;2022-08-21T12:59:00;28.40;45.60
59505;DHT22;45321;53.200;5.814;2022-08-21T13:01:36;28.30;46.00
59505;DHT22;45321;53.200;5.814;2022-08-21T13:04:12;28.40;46.10
59505;DHT22;45321;53.200;5.814;2022-08-21T13:06:41;28.40;45.80
59505;DHT22;45321;53.200;5.814;2022-08-21T13:09:13;28.50;46.20
59505;DHT22;45321;53.200;5.814;2022-08-21T13:11:42;28.60;45.80
59505;DHT22;45321;53.200;5.814;2022-08-21T13:14:24;28.60;45.60
59505;DHT22;45321;53.200;5.814;2022-08-21T13:16:55;28.40;46.10
59505;DHT22;45321;53.200;5.814;2022-08-21T13:19:22;28.20;46.40
59505;DHT22;45321;53.200;5.814;2022-08-21T13:21:48;28.20;46.80
59505;DHT22;45321;53.200;5.814;2022-08-21T13:24:19;28.20;45.50
59505;DHT22;45321;53.200;5.814;2022-08-21T13:26:46;28.20;45.60
59505;DHT22;45321;53.200;5.814;2022-08-21T13:29:15;28.20;46.40
59505;DHT22;45321;53.200;5.814;2022-08-21T13:31:53;28.30;46.50
59505;DHT22;45321;53.200;5.814;2022-08-21T13:34:24;28.40;46.80
59505;DHT22;45321;53.200;5.814;2022-08-21T13:36:57;28.50;45.80
59505;DHT22;45321;53.200;5.814;2022-08-21T13:39:24;28.50;45.30
59505;DHT22;45321;53.200;5.814;2022-08-21T13:41:53;28.50;44.90
59505;DHT22;45321;53.200;5.814;2022-08-21T13:46:57;28.50;46.20
59505;DHT22;45321;53.200;5.814;2022-08-21T13:49:37;28.30;45.00
59505;DHT22;45321;53.200;5.814;2022-08-21T13:52:04;28.20;45.30
59505;DHT22;45321;53.200;5.814;2022-08-21T13:54:37;28.20;45.40
59505;DHT22;45321;53.200;5.814;2022-08-21T13:57:04;28.20;46.10
59505;DHT22;45321;53.200;5.814;2022-08-21T13:59:32;28.20;46.20
59505;DHT22;45321;53.200;5.814;2022-08-21T14:04:38;28.60;46.00
59505;DHT22;45321;53.200;5.814;2022-08-21T14:07:21;28.80;44.80
59505;DHT22;45321;53.200;5.814;2022-08-21T14:09:49;28.60;45.00
59505;DHT22;45321;53.200;5.814;2022-08-21T14:12:28;28.50;45.80
59505;DHT22;45321;53.200;5.814;2022-08-21T14:14:56;28.40;45.50
59505;DHT22;45321;53.200;5.814;2022-08-21T14:17:29;28.20;45.70
59505;DHT22;45321;53.200;5.814;2022-08-21T14:19:55;28.10;46.60
59505;DHT22;45321;53.200;5.814;2022-08-21T14:22:36;27.90;47.30
59505;DHT22;45321;53.200;5.814;2022-08-21T14:28:02;27.60;48.10
59505;DHT22;45321;53.200;5.814;2022-08-21T14:30:33;27.60;48.60
59505;DHT22;45321;53.200;5.814;2022-08-21T14:33:02;27.60;48.60
59505;DHT22;45321;53.200;5.814;2022-08-21T14:35:28;27.70;48.20
59505;DHT22;45321;53.200;5.814;2022-08-21T14:37:54;27.80;48.90
59505;DHT22;45321;53.200;5.814;2022-08-21T14:40:22;27.90;48.30
59505;DHT22;45321;53.200;5.814;2022-08-21T14:42:48;28.00;47.60
59505;DHT22;45321;53.200;5.814;2022-08-21T14:45:18;27.90;47.40
59505;DHT22;45321;53.200;5.814;2022-08-21T14:47:45;27.90;47.80
59505;DHT22;45321;53.200;5.814;2022-08-21T14:50:12;28.00;47.70
59505;DHT22;45321;53.200;5.814;2022-08-21T14:52:39;28.10;46.40
59505;DHT22;45321;53.200;5.814;2022-08-21T14:55:07;28.20;45.70
59505;DHT22;45321;53.200;5.814;2022-08-21T14:57:36;28.30;46.60
59505;DHT22;45321;53.200;5.814;2022-08-21T15:00:04;28.50;45.80
59505;DHT22;45321;53.200;5.814;2022-08-21T15:02:30;28.50;45.80
59505;DHT22;45321;53.200;5.814;2022-08-21T15:04:56;28.70;45.90
59505;DHT22;45321;53.200;5.814;2022-08-21T15:07:21;28.70;45.30
59505;DHT22;45321;53.200;5.814;2022-08-21T15:09:47;28.70;45.20
59505;DHT22;45321;53.200;5.814;2022-08-21T15:12:13;28.80;45.20
59505;DHT22;45321;53.200;5.814;2022-08-21T15:14:40;28.80;44.70
59505;DHT22;45321;53.200;5.814;2022-08-21T15:17:08;28.80;44.20
59505;DHT22;45321;53.200;5.814;2022-08-21T15:19:35;28.70;44.90
59505;DHT22;45321;53.200;5.814;2022-08-21T15:22:01;28.60;45.00
59505;DHT22;45321;53.200;5.814;2022-08-21T15:24:27;28.40;45.40
59505;DHT22;45321;53.200;5.814;2022-08-21T15:26:54;28.20;45.30
59505;DHT22;45321;53.200;5.814;2022-08-21T15:29:20;28.00;45.40
59505;DHT22;45321;53.200;5.814;2022-08-21T15:31:52;27.80;45.80
59505;DHT22;45321;53.200;5.814;2022-08-21T15:34:19;27.70;46.10
59505;DHT22;45321;53.200;5.814;2022-08-21T15:36:45;27.50;44.10
59505;DHT22;45321;53.200;5.814;2022-08-21T15:39:11;27.20;45.50
59505;DHT22;45321;53.200;5.814;2022-08-21T15:41:37;27.20;45.60
59505;DHT22;45321;53.200;5.814;2022-08-21T15:44:03;27.20;46.00
59505;DHT22;45321;53.200;5.814;2022-08-21T15:46:29;27.20;46.10
59505;DHT22;45321;53.200;5.814;2022-08-21T15:48:54;27.20;46.20
59505;DHT22;45321;53.200;5.814;2022-08-21T15:51:20;27.20;46.70
59505;DHT22;45321;53.200;5.814;2022-08-21T15:53:46;27.20;46.10
59505;DHT22;45321;53.200;5.814;2022-08-21T15:56:21;27.10;46.30
59505;DHT22;45321;53.200;5.814;2022-08-21T15:58:49;27.00;46.60
59505;DHT22;45321;53.200;5.814;2022-08-21T16:01:16;26.90;46.40
59505;DHT22;45321;53.200;5.814;2022-08-21T16:03:43;26.80;46.30
59505;DHT22;45321;53.200;5.814;2022-08-21T16:06:12;26.80;46.00
59505;DHT22;45321;53.200;5.814;2022-08-21T16:08:37;26.70;46.60
59505;DHT22;45321;53.200;5.814;2022-08-21T16:11:04;26.60;46.70
59505;DHT22;45321;53.200;5.814;2022-08-21T16:13:36;26.50;46.80
59505;DHT22;45321;53.200;5.814;2022-08-21T16:16:04;26.40;46.90
59505;DHT22;45321;53.200;5.814;2022-08-21T16:18:30;26.40;47.00
59505;DHT22;45321;53.200;5.814;2022-08-21T16:20:56;26.40;46.90
59505;DHT22;45321;53.200;5.814;2022-08-21T16:23:22;26.20;47.00
59505;DHT22;45321;53.200;5.814;2022-08-21T16:25:48;26.20;47.50
59505;DHT22;45321;53.200;5.814;2022-08-21T16:28:16;26.10;48.00
59505;DHT22;45321;53.200;5.814;2022-08-21T16:30:49;26.00;48.30
59505;DHT22;45321;53.200;5.814;2022-08-21T16:33:35;26.00;48.10
59505;DHT22;45321;53.200;5.814;2022-08-21T16:36:02;25.90;48.50
59505;DHT22;45321;53.200;5.814;2022-08-21T16:38:28;25.90;48.50
59505;DHT22;45321;53.200;5.814;2022-08-21T16:40:55;25.80;48.50
59505;DHT22;45321;53.200;5.814;2022-08-21T16:43:26;25.70;48.50